createdAt,value
2022-10-04T00:01:53.301Z,2.60
2022-10-04T00:05:08.524Z,2.70
2022-10-04T00:08:31.206Z,3.50
2022-10-04T00:11:45.203Z,3.30
2022-10-04T00:14:56.352Z,3.10
2022-10-04T00:18:20.290Z,3.20
2022-10-04T00:22:07.710Z,3.20
2022-10-04T00:25:35.094Z,3.40
2022-10-04T00:28:51.204Z,3.20
2022-10-04T00:32:30.654Z,3.10
2022-10-04T00:35:53.766Z,3.10
2022-10-04T00:39:27.675Z,3.30
2022-10-04T00:42:53.272Z,3.20
2022-10-04T00:46:07.216Z,3.30
2022-10-04T00:49:22.792Z,3.40
2022-10-04T00:52:36.812Z,2.90
2022-10-04T00:55:54.345Z,3.00
2022-10-04T00:59:35.835Z,3.20
2022-10-04T01:02:54.767Z,3.00
2022-10-04T01:06:07.942Z,3.20
2022-10-04T01:09:18.639Z,3.00
2022-10-04T01:12:43.808Z,3.30
2022-10-04T01:15:59.672Z,3.00
2022-10-04T01:19:33.928Z,2.80
2022-10-04T01:22:51.858Z,3.30
2022-10-04T01:26:00.096Z,3.30
2022-10-04T01:29:14.631Z,3.30
2022-10-04T01:32:23.217Z,3.20
2022-10-04T01:35:34.206Z,3.00
2022-10-04T01:38:42.381Z,3.00
2022-10-04T01:41:58.566Z,3.20
2022-10-04T01:45:14.430Z,2.90
2022-10-04T01:48:29.417Z,3.00
2022-10-04T01:51:44.572Z,3.20
2022-10-04T01:55:02.454Z,3.10
2022-10-04T01:58:18.929Z,3.20
2022-10-04T02:01:32.369Z,3.30
2022-10-04T02:04:43.936Z,3.10
2022-10-04T02:07:54.005Z,3.20
2022-10-04T02:11:04.862Z,3.00
2022-10-04T02:14:18.861Z,3.50
2022-10-04T02:17:31.074Z,3.20
2022-10-04T02:20:43.192Z,3.40
2022-10-04T02:23:53.535Z,3.30
2022-10-04T02:27:01.680Z,3.20
2022-10-04T02:30:13.806Z,3.30
2022-10-04T02:33:23.332Z,3.60
2022-10-04T02:36:33.398Z,3.40
2022-10-04T02:39:45.470Z,3.30
2022-10-04T02:43:01.800Z,2.90
2022-10-04T02:46:16.999Z,3.10
2022-10-04T02:49:33.640Z,3.00
2022-10-04T02:52:50.879Z,3.00
2022-10-04T02:55:59.403Z,2.90
2022-10-04T02:59:09.279Z,3.30
2022-10-04T03:05:39.996Z,2.80
2022-10-04T03:08:54.846Z,3.20
2022-10-04T03:12:05.056Z,3.10
2022-10-04T03:15:15.400Z,3.10
2022-10-04T03:18:24.343Z,2.80
2022-10-04T03:21:35.284Z,3.20
2022-10-04T03:24:49.128Z,3.00
2022-10-04T03:28:02.140Z,3.50
2022-10-04T03:31:11.518Z,3.00
2022-10-04T03:34:23.068Z,3.20
2022-10-04T03:37:36.490Z,3.20
2022-10-04T03:40:53.412Z,3.00
2022-10-04T03:44:05.035Z,3.30
2022-10-04T03:47:17.609Z,3.20
2022-10-04T03:50:30.770Z,3.20
2022-10-04T03:53:43.641Z,3.10
2022-10-04T03:56:55.279Z,2.80
2022-10-04T04:00:06.724Z,2.80
2022-10-04T04:03:23.625Z,3.10
2022-10-04T04:06:43.469Z,2.50
2022-10-04T04:10:00.181Z,3.00
2022-10-04T04:13:22.712Z,3.10
2022-10-04T04:16:31.675Z,2.90
2022-10-04T04:19:49.079Z,3.10
2022-10-04T04:23:22.139Z,3.00
2022-10-04T04:26:39.389Z,3.00
2022-10-04T04:29:53.117Z,2.80
2022-10-04T04:33:08.071Z,3.20
2022-10-04T04:36:19.349Z,3.10
2022-10-04T04:39:37.467Z,2.70
2022-10-04T04:42:48.401Z,2.90
2022-10-04T04:46:25.705Z,3.10
2022-10-04T04:49:26.573Z,2.80
2022-10-04T04:52:35.466Z,2.80
2022-10-04T04:56:03.443Z,2.70
2022-10-04T04:59:13.216Z,2.70
2022-10-04T05:02:37.347Z,2.90
2022-10-04T05:05:51.054Z,2.90
2022-10-04T05:08:59.812Z,2.90
2022-10-04T05:12:16.738Z,2.70
2022-10-04T05:15:25.524Z,2.70
2022-10-04T05:18:36.041Z,2.80
2022-10-04T05:21:49.930Z,3.50
2022-10-04T05:25:02.759Z,2.80
2022-10-04T05:28:14.311Z,2.70
2022-10-04T05:31:49.502Z,3.10
2022-10-04T05:34:57.635Z,2.70
2022-10-04T05:38:16.686Z,3.00
2022-10-04T05:41:33.966Z,3.10
2022-10-04T05:44:54.177Z,2.80
2022-10-04T05:48:09.248Z,3.10
2022-10-04T05:51:26.866Z,3.00
2022-10-04T05:54:38.086Z,2.80
2022-10-04T05:58:01.285Z,2.70
2022-10-04T06:01:39.664Z,2.80
2022-10-04T06:05:04.532Z,2.60
2022-10-04T06:08:26.339Z,2.80
2022-10-04T06:11:51.541Z,3.40
2022-10-04T06:15:43.505Z,3.00
2022-10-04T06:19:32.660Z,3.30
2022-10-04T06:22:50.141Z,3.10
2022-10-04T06:26:05.201Z,2.60
2022-10-04T06:29:21.494Z,2.90
2022-10-04T06:33:14.362Z,2.50
2022-10-04T06:36:54.595Z,2.60
2022-10-04T06:40:30.050Z,2.70
2022-10-04T06:44:09.031Z,2.60
2022-10-04T06:47:38.963Z,2.70
2022-10-04T06:54:18.870Z,2.40
2022-10-04T06:57:49.633Z,2.30
2022-10-04T07:01:08.751Z,2.40
2022-10-04T07:05:06.362Z,3.00
2022-10-04T07:08:31.298Z,2.50
2022-10-04T07:11:51.368Z,2.80
2022-10-04T07:15:05.495Z,2.60
2022-10-04T07:18:25.486Z,2.80
2022-10-04T07:21:50.479Z,2.70
2022-10-04T07:25:14.911Z,2.60
2022-10-04T07:28:47.562Z,2.40
2022-10-04T07:32:10.742Z,2.70
2022-10-04T07:35:36.023Z,2.80
2022-10-04T07:38:55.209Z,2.70
2022-10-04T07:42:22.079Z,2.70
2022-10-04T07:45:34.997Z,2.50
2022-10-04T07:48:48.838Z,2.40
2022-10-04T07:52:22.985Z,2.40
2022-10-04T07:55:44.925Z,2.60
2022-10-04T07:59:11.829Z,2.60
2022-10-04T08:02:36.476Z,2.40
2022-10-04T08:05:53.771Z,2.60
2022-10-04T08:09:41.143Z,2.40
2022-10-04T08:13:00.716Z,2.60
2022-10-04T08:16:23.833Z,2.40
2022-10-04T08:19:55.698Z,2.60
2022-10-04T08:23:49.343Z,2.70
2022-10-04T08:27:28.197Z,2.80
2022-10-04T08:30:58.951Z,2.50
2022-10-04T08:34:33.061Z,2.80
2022-10-04T08:38:01.800Z,2.50
2022-10-04T08:41:59.319Z,2.50
2022-10-04T08:45:59.512Z,2.50
2022-10-04T08:49:54.251Z,2.70
2022-10-04T08:53:40.467Z,2.40
2022-10-04T08:57:21.136Z,2.60
2022-10-04T09:00:47.508Z,2.50
2022-10-04T09:04:42.483Z,2.30
2022-10-04T09:08:40.158Z,2.60
2022-10-04T09:12:37.443Z,2.60
2022-10-04T09:15:57.091Z,2.50
2022-10-04T09:19:44.283Z,2.60
2022-10-04T09:23:06.433Z,2.60
2022-10-04T09:26:25.527Z,2.70
2022-10-04T09:30:04.770Z,2.60
2022-10-04T09:33:55.998Z,2.80
2022-10-04T09:37:31.054Z,2.50
2022-10-04T09:41:32.956Z,2.70
2022-10-04T09:45:08.693Z,3.00
2022-10-04T09:48:32.087Z,2.40
2022-10-04T09:52:19.793Z,2.70
2022-10-04T09:56:11.111Z,2.90
2022-10-04T09:59:53.555Z,2.40
2022-10-04T10:03:50.994Z,2.50
2022-10-04T10:07:36.318Z,2.80
2022-10-04T10:11:20.278Z,2.50
2022-10-04T10:15:12.961Z,2.90
2022-10-04T10:18:35.611Z,3.20
2022-10-04T10:22:04.332Z,3.00
2022-10-04T10:25:39.363Z,2.90
2022-10-04T10:29:20.023Z,3.20
2022-10-04T10:33:00.311Z,3.00
2022-10-04T10:37:00.850Z,2.90
2022-10-04T10:40:44.360Z,2.60
2022-10-04T10:44:26.816Z,3.40
2022-10-04T10:47:49.535Z,2.90
2022-10-04T10:51:20.601Z,2.50
2022-10-04T10:55:01.286Z,2.70
2022-10-04T10:59:03.356Z,2.80
2022-10-04T11:02:53.630Z,2.90
2022-10-04T11:06:45.032Z,2.80
2022-10-04T11:10:31.655Z,2.90
2022-10-04T11:14:24.985Z,2.70
2022-10-04T11:18:11.646Z,2.60
2022-10-04T11:22:06.983Z,2.70
2022-10-04T11:25:48.242Z,2.70
2022-10-04T11:29:10.388Z,2.90
2022-10-04T11:33:14.110Z,2.90
2022-10-04T11:36:54.035Z,2.90
2022-10-04T11:40:31.448Z,2.50
2022-10-04T11:44:16.481Z,2.70
2022-10-04T11:47:50.743Z,2.30
2022-10-04T11:51:48.773Z,2.50
2022-10-04T11:55:37.081Z,2.50
2022-10-04T11:59:03.218Z,2.80
2022-10-04T12:02:55.286Z,2.70
2022-10-04T12:06:26.621Z,2.50
2022-10-04T12:09:47.855Z,2.60
2022-10-04T12:13:40.691Z,2.30
2022-10-04T12:17:22.800Z,2.30
2022-10-04T12:21:20.138Z,2.30
2022-10-04T12:25:16.698Z,2.30
2022-10-04T12:29:13.868Z,2.30
2022-10-04T12:32:29.315Z,1.90
2022-10-04T12:35:58.243Z,2.20
2022-10-04T12:39:32.702Z,2.30
2022-10-04T12:42:54.478Z,2.20
2022-10-04T12:46:23.665Z,2.30
2022-10-04T12:49:48.313Z,2.20
2022-10-04T12:53:08.134Z,2.10
2022-10-04T12:56:33.708Z,1.90
2022-10-04T12:59:56.459Z,2.10
2022-10-04T13:03:40.402Z,2.10
2022-10-04T13:07:11.999Z,1.90
2022-10-04T13:10:44.752Z,2.00
2022-10-04T13:14:38.041Z,2.00
2022-10-04T13:17:55.516Z,1.90
2022-10-04T13:21:08.073Z,1.80
2022-10-04T13:24:28.802Z,2.00
2022-10-04T13:27:50.091Z,1.90
2022-10-04T13:31:07.389Z,2.20
2022-10-04T13:34:31.855Z,1.80
2022-10-04T13:37:50.670Z,2.00
2022-10-04T13:41:23.391Z,1.80
2022-10-04T13:44:57.988Z,2.00
2022-10-04T13:48:28.236Z,2.00
2022-10-04T13:52:28.825Z,1.80
2022-10-04T13:56:03.139Z,1.90
2022-10-04T13:59:24.271Z,2.00
2022-10-04T14:03:30.889Z,1.90
2022-10-04T14:07:21.076Z,1.90
2022-10-04T14:11:21.925Z,1.80
2022-10-04T14:15:05.263Z,1.80
2022-10-04T14:19:00.559Z,1.90
2022-10-04T14:22:54.817Z,1.80
2022-10-04T14:26:44.405Z,2.10
2022-10-04T14:30:17.448Z,1.90
2022-10-04T14:34:19.062Z,1.80
2022-10-04T14:38:17.263Z,1.80
2022-10-04T14:42:26.635Z,2.10
2022-10-04T14:45:45.164Z,2.20
2022-10-04T14:49:18.912Z,2.00
2022-10-04T14:52:57.341Z,1.90
2022-10-04T14:56:47.000Z,1.80
2022-10-04T15:00:21.200Z,1.90
2022-10-04T15:03:47.181Z,2.10
2022-10-04T15:06:58.983Z,2.00
2022-10-04T15:10:19.988Z,2.10
2022-10-04T15:13:36.640Z,2.00
2022-10-04T15:16:56.857Z,2.10
2022-10-04T15:20:23.158Z,2.20
2022-10-04T15:23:42.054Z,2.10
2022-10-04T15:27:13.563Z,2.40
2022-10-04T15:30:35.982Z,2.40
2022-10-04T15:34:01.706Z,2.50
2022-10-04T15:37:25.779Z,2.80
2022-10-04T15:40:59.179Z,2.40
2022-10-04T15:45:03.324Z,2.40
2022-10-04T15:48:51.435Z,2.60
2022-10-04T15:52:23.303Z,2.70
2022-10-04T15:56:00.510Z,2.90
2022-10-04T15:59:39.348Z,2.90
2022-10-04T16:03:14.428Z,2.80
2022-10-04T16:06:33.186Z,2.90
2022-10-04T16:09:50.333Z,3.00
2022-10-04T16:13:47.718Z,3.00
2022-10-04T16:17:35.779Z,3.00
2022-10-04T16:21:16.159Z,3.30
2022-10-04T16:24:49.145Z,4.00
2022-10-04T16:28:27.319Z,4.90
2022-10-04T16:32:03.309Z,5.60
2022-10-04T16:35:30.511Z,4.80
2022-10-04T16:39:02.143Z,5.00
2022-10-04T16:42:19.272Z,4.30
2022-10-04T16:46:08.046Z,4.20
2022-10-04T16:49:37.590Z,4.10
2022-10-04T16:53:20.522Z,3.60
2022-10-04T16:56:33.000Z,3.40
2022-10-04T16:59:57.288Z,3.60
2022-10-04T17:03:28.248Z,3.40
2022-10-04T17:06:51.690Z,3.40
2022-10-04T17:10:20.359Z,3.10
2022-10-04T17:13:36.475Z,3.40
2022-10-04T17:16:57.969Z,3.40
2022-10-04T17:20:22.396Z,3.40
2022-10-04T17:23:54.850Z,3.30
2022-10-04T17:27:27.424Z,3.40
2022-10-04T17:30:53.542Z,3.10
2022-10-04T17:34:16.213Z,3.40
2022-10-04T17:37:39.670Z,3.70
2022-10-04T17:40:58.319Z,3.40
2022-10-04T17:44:45.601Z,3.50
2022-10-04T17:48:24.371Z,3.60
2022-10-04T17:52:02.856Z,3.50
2022-10-04T17:55:20.295Z,3.80
2022-10-04T17:58:44.924Z,3.60
2022-10-04T18:02:05.639Z,3.90
2022-10-04T18:05:23.614Z,4.00
2022-10-04T18:08:53.542Z,3.80
2022-10-04T18:15:26.671Z,3.40
2022-10-04T18:18:47.562Z,4.00
2022-10-04T18:22:03.769Z,3.70
2022-10-04T18:25:23.985Z,3.80
2022-10-04T18:28:34.874Z,4.20
2022-10-04T18:31:47.456Z,4.00
2022-10-04T18:35:02.311Z,4.10
2022-10-04T18:38:29.687Z,4.00
2022-10-04T18:41:53.358Z,4.30
2022-10-04T18:45:14.058Z,4.30
2022-10-04T18:48:41.247Z,4.40
2022-10-04T18:52:06.837Z,4.60
2022-10-04T18:55:36.712Z,4.50
2022-10-04T19:02:39.440Z,4.40
2022-10-04T19:05:54.860Z,4.30
2022-10-04T19:09:15.911Z,4.30
2022-10-04T19:12:30.118Z,4.70
2022-10-04T19:15:56.926Z,4.80
2022-10-04T19:19:32.126Z,4.50
2022-10-04T19:22:58.856Z,5.20
2022-10-04T19:26:31.685Z,5.40
2022-10-04T19:30:02.154Z,4.40
2022-10-04T19:33:25.754Z,5.30
2022-10-04T19:36:55.492Z,5.20
2022-10-04T19:40:17.857Z,4.90
2022-10-04T19:43:36.531Z,4.90
2022-10-04T19:46:59.971Z,4.90
2022-10-04T19:50:19.223Z,5.00
2022-10-04T19:53:37.256Z,4.80
2022-10-04T19:56:50.226Z,4.80
2022-10-04T19:59:58.346Z,4.50
2022-10-04T20:03:13.633Z,5.10
2022-10-04T20:06:26.340Z,5.40
2022-10-04T20:09:54.567Z,4.80
2022-10-04T20:13:24.492Z,4.70
2022-10-04T20:17:06.087Z,5.10
2022-10-04T20:20:18.237Z,4.80
2022-10-04T20:27:06.975Z,4.90
2022-10-04T20:30:24.300Z,5.00
2022-10-04T20:33:53.882Z,4.90
2022-10-04T20:37:01.715Z,5.30
2022-10-04T20:40:12.203Z,5.30
2022-10-04T20:43:32.638Z,4.80
2022-10-04T20:46:41.961Z,4.70
2022-10-04T20:49:50.669Z,4.80
2022-10-04T20:53:04.956Z,4.50
2022-10-04T20:56:26.620Z,4.00
2022-10-04T20:59:34.729Z,4.60
2022-10-04T21:02:42.446Z,4.50
2022-10-04T21:06:03.204Z,4.60
2022-10-04T21:09:12.735Z,4.40
2022-10-04T21:12:40.193Z,4.70
2022-10-04T21:16:00.655Z,4.70
2022-10-04T21:19:46.823Z,4.80
2022-10-04T21:23:17.015Z,5.50
2022-10-04T21:26:28.318Z,6.10
2022-10-04T21:29:36.002Z,6.30
2022-10-04T21:32:44.237Z,5.30
2022-10-04T21:35:54.210Z,5.20
2022-10-04T21:39:02.142Z,5.10
2022-10-04T21:42:10.110Z,5.20
2022-10-04T21:45:18.336Z,6.00
2022-10-04T21:48:26.567Z,5.60
2022-10-04T21:51:36.534Z,5.10
2022-10-04T21:54:44.562Z,5.50
2022-10-04T21:57:52.692Z,5.30
2022-10-04T22:01:00.765Z,5.40
2022-10-04T22:04:08.758Z,5.30
2022-10-04T22:07:16.540Z,5.80
2022-10-04T22:10:24.603Z,5.80
2022-10-04T22:13:32.527Z,5.70
2022-10-04T22:16:40.762Z,5.80
2022-10-04T22:19:49.945Z,5.40
2022-10-04T22:22:59.541Z,6.30
2022-10-04T22:26:13.117Z,5.90
2022-10-04T22:29:22.098Z,6.00
2022-10-04T22:32:31.139Z,6.70
2022-10-04T22:35:38.927Z,6.30
2022-10-04T22:38:52.532Z,5.30
2022-10-04T22:42:04.038Z,5.80
2022-10-04T22:45:22.680Z,6.10
2022-10-04T22:48:30.867Z,5.70
2022-10-04T22:51:39.438Z,5.80
2022-10-04T22:54:51.147Z,6.00
2022-10-04T22:57:59.741Z,5.70
2022-10-04T23:01:14.996Z,5.20
2022-10-04T23:04:26.896Z,5.60
2022-10-04T23:07:38.369Z,5.90
2022-10-04T23:10:47.020Z,5.60
2022-10-04T23:13:58.637Z,5.70
2022-10-04T23:17:19.257Z,5.60
2022-10-04T23:20:29.906Z,5.40
2022-10-04T23:23:37.756Z,5.70
2022-10-04T23:26:50.496Z,5.10
2022-10-04T23:30:05.456Z,5.40
2022-10-04T23:33:20.503Z,5.30
2022-10-04T23:36:28.787Z,5.20
2022-10-04T23:39:38.080Z,5.10
2022-10-04T23:42:46.050Z,5.40
2022-10-04T23:45:55.220Z,5.10
2022-10-04T23:49:03.167Z,5.00
2022-10-04T23:52:21.560Z,5.10
2022-10-04T23:55:35.149Z,5.40
2022-10-04T23:58:45.189Z,5.10
